createdAt,value
2022-09-27T00:03:46.407Z,4.60
2022-09-27T00:09:11.692Z,4.75
2022-09-27T00:14:37.646Z,4.95
2022-09-27T00:20:03.062Z,4.88
2022-09-27T00:25:29.314Z,5.07
2022-09-27T00:30:56.711Z,5.30
2022-09-27T00:36:23.743Z,4.70
2022-09-27T00:41:48.526Z,5.28
2022-09-27T00:47:26.269Z,4.93
2022-09-27T00:52:59.464Z,4.00
2022-09-27T00:58:28.552Z,4.40
2022-09-27T01:04:02.020Z,3.60
2022-09-27T01:09:27.380Z,3.97
2022-09-27T01:15:08.253Z,3.55
2022-09-27T01:21:06.915Z,3.97
2022-09-27T01:26:46.993Z,3.53
2022-09-27T01:32:20.372Z,3.58
2022-09-27T01:37:53.417Z,3.83
2022-09-27T01:43:25.357Z,3.05
2022-09-27T01:48:53.043Z,3.22
2022-09-27T01:54:26.573Z,3.15
2022-09-27T02:00:12.142Z,3.33
2022-09-27T02:05:44.935Z,3.28
2022-09-27T02:11:30.061Z,3.58
2022-09-27T02:17:14.775Z,4.32
2022-09-27T02:22:48.796Z,3.35
2022-09-27T02:28:24.677Z,3.92
2022-09-27T02:33:55.269Z,4.00
2022-09-27T02:39:22.300Z,4.13
2022-09-27T02:44:54.904Z,4.20
2022-09-27T02:50:44.868Z,5.32
2022-09-27T02:56:37.997Z,5.47
2022-09-27T03:02:32.610Z,5.63
2022-09-27T03:08:24.465Z,6.28
2022-09-27T03:14:07.813Z,6.35
2022-09-27T03:19:37.275Z,7.10
2022-09-27T03:25:23.612Z,7.65
2022-09-27T03:30:49.296Z,10.30
2022-09-27T03:36:35.240Z,11.10
2022-09-27T03:42:02.689Z,11.52
2022-09-27T03:47:28.212Z,11.05
2022-09-27T03:52:52.744Z,10.48
2022-09-27T03:58:17.269Z,10.30
2022-09-27T04:03:43.780Z,10.95
2022-09-27T04:09:22.626Z,9.30
2022-09-27T04:14:55.314Z,6.80
2022-09-27T04:20:40.180Z,5.75
2022-09-27T04:26:08.839Z,5.85
2022-09-27T04:31:56.365Z,4.70
2022-09-27T04:37:29.738Z,4.88
2022-09-27T04:43:01.593Z,4.95
2022-09-27T04:48:27.079Z,4.47
2022-09-27T04:53:52.396Z,4.53
2022-09-27T04:59:17.091Z,4.55
2022-09-27T05:04:41.708Z,4.72
2022-09-27T05:10:10.228Z,4.68
2022-09-27T05:15:34.470Z,4.28
2022-09-27T05:21:17.630Z,4.50
2022-09-27T05:26:45.638Z,5.20
2022-09-27T05:32:09.489Z,5.15
2022-09-27T05:37:34.278Z,4.65
2022-09-27T05:43:00.071Z,5.05
2022-09-27T05:48:24.679Z,5.22
2022-09-27T05:53:57.948Z,5.00
2022-09-27T05:59:28.076Z,5.38
2022-09-27T06:05:15.018Z,5.45
2022-09-27T06:11:05.452Z,6.43
2022-09-27T06:16:32.107Z,5.75
2022-09-27T06:21:57.794Z,6.85
2022-09-27T06:27:27.423Z,8.02
2022-09-27T06:33:04.636Z,8.45
2022-09-27T06:38:36.313Z,8.90
2022-09-27T06:44:19.046Z,9.25
2022-09-27T06:50:05.739Z,10.98
2022-09-27T06:55:33.240Z,10.25
2022-09-27T07:00:58.818Z,10.32
2022-09-27T07:06:42.955Z,11.25
2022-09-27T07:12:17.780Z,13.05
2022-09-27T07:17:43.637Z,13.52
2022-09-27T07:23:10.425Z,13.13
2022-09-27T07:28:36.025Z,12.82
2022-09-27T07:34:00.693Z,13.73
2022-09-27T07:39:26.198Z,12.65
2022-09-27T07:44:50.507Z,10.80
2022-09-27T07:50:29.202Z,9.35
2022-09-27T07:55:59.236Z,9.00
2022-09-27T08:01:29.444Z,6.28
2022-09-27T08:06:56.913Z,7.03
2022-09-27T08:12:25.557Z,6.30
2022-09-27T08:17:56.386Z,5.28
2022-09-27T08:23:45.880Z,3.92
2022-09-27T08:29:19.267Z,4.50
2022-09-27T08:34:50.791Z,4.47
2022-09-27T08:40:24.767Z,4.18
2022-09-27T08:46:04.128Z,4.40
2022-09-27T08:51:34.008Z,5.55
2022-09-27T08:57:05.729Z,5.07
2022-09-27T09:02:36.919Z,4.90
2022-09-27T09:08:29.837Z,5.57
2022-09-27T09:14:27.452Z,5.43
2022-09-27T09:20:17.046Z,5.97
2022-09-27T09:26:03.204Z,6.53
2022-09-27T09:31:38.789Z,7.82
2022-09-27T09:37:14.173Z,7.43
2022-09-27T09:42:49.721Z,8.50
2022-09-27T09:48:30.393Z,7.07
2022-09-27T09:54:10.735Z,8.07
2022-09-27T09:59:43.575Z,6.97
2022-09-27T10:05:18.508Z,6.53
2022-09-27T10:10:47.531Z,5.47
2022-09-27T10:16:49.854Z,6.32
2022-09-27T10:22:24.762Z,5.15
2022-09-27T10:27:57.666Z,6.00
2022-09-27T10:33:30.704Z,6.15
2022-09-27T10:39:05.856Z,6.20
2022-09-27T10:44:45.949Z,5.80
2022-09-27T10:50:49.218Z,5.78
2022-09-27T10:56:28.691Z,5.30
2022-09-27T11:01:57.107Z,4.28
2022-09-27T11:07:39.827Z,3.80
2022-09-27T11:13:19.470Z,3.90
2022-09-27T11:19:05.125Z,4.00
2022-09-27T11:24:49.937Z,3.67
2022-09-27T11:30:23.245Z,2.90
2022-09-27T11:42:14.785Z,3.42
2022-09-27T11:47:52.725Z,3.53
2022-09-27T11:53:38.190Z,3.00
2022-09-27T11:59:32.688Z,3.13
2022-09-27T12:05:34.308Z,3.60
2022-09-27T12:11:14.538Z,3.00
2022-09-27T12:16:44.832Z,2.97
2022-09-27T12:22:16.417Z,3.33
2022-09-27T12:27:49.887Z,2.97
2022-09-27T12:33:31.517Z,3.05
2022-09-27T12:39:05.105Z,2.83
2022-09-27T12:44:41.022Z,3.60
2022-09-27T12:50:18.255Z,3.63
2022-09-27T12:56:07.540Z,3.72
2022-09-27T13:02:17.424Z,3.35
2022-09-27T13:07:56.280Z,3.65
2022-09-27T13:13:26.605Z,4.22
2022-09-27T13:19:00.052Z,3.70
2022-09-27T13:24:49.127Z,4.28
2022-09-27T13:30:50.947Z,4.10
2022-09-27T13:36:31.599Z,4.80
2022-09-27T13:42:32.314Z,6.65
2022-09-27T13:48:01.690Z,6.53
2022-09-27T13:53:39.003Z,7.70
2022-09-27T13:59:10.714Z,7.28
2022-09-27T14:04:49.019Z,7.93
2022-09-27T14:10:21.970Z,7.25
2022-09-27T14:15:51.184Z,7.63
2022-09-27T14:21:29.306Z,7.25
2022-09-27T14:27:27.549Z,6.60
2022-09-27T14:33:04.131Z,6.97
2022-09-27T14:38:43.717Z,5.97
2022-09-27T14:44:24.664Z,7.38
2022-09-27T14:49:59.880Z,6.80
2022-09-27T14:55:25.728Z,7.38
2022-09-27T15:00:51.691Z,7.35
2022-09-27T15:06:16.323Z,7.47
2022-09-27T15:11:42.605Z,6.40
2022-09-27T15:17:20.927Z,7.47
2022-09-27T15:22:46.788Z,8.32
2022-09-27T15:28:19.438Z,8.25
2022-09-27T15:33:54.962Z,9.25
2022-09-27T15:39:20.845Z,10.85
2022-09-27T15:44:47.663Z,9.45
2022-09-27T15:50:38.300Z,9.80
2022-09-27T15:56:03.507Z,10.57
2022-09-27T16:01:29.093Z,9.23
2022-09-27T16:06:55.792Z,10.15
2022-09-27T16:12:22.485Z,9.97
2022-09-27T16:17:47.148Z,9.77
2022-09-27T16:23:13.215Z,9.40
2022-09-27T16:28:38.487Z,8.98
2022-09-27T16:34:02.764Z,9.45
2022-09-27T16:39:28.220Z,9.75
2022-09-27T16:44:53.517Z,9.68
2022-09-27T16:50:34.887Z,10.00
2022-09-27T16:56:01.586Z,10.77
2022-09-27T17:01:27.207Z,10.70
2022-09-27T17:06:51.566Z,10.05
2022-09-27T17:12:17.289Z,9.52
2022-09-27T17:17:41.617Z,11.02
2022-09-27T17:23:08.663Z,10.25
2022-09-27T17:28:34.444Z,9.52
2022-09-27T17:34:00.031Z,9.45
2022-09-27T17:39:24.541Z,9.80
2022-09-27T17:44:50.144Z,8.68
2022-09-27T17:50:28.544Z,9.10
2022-09-27T17:55:53.158Z,8.10
2022-09-27T18:01:20.768Z,6.72
2022-09-27T18:06:47.962Z,6.63
2022-09-27T18:12:13.759Z,6.88
2022-09-27T18:17:39.335Z,7.47
2022-09-27T18:23:03.621Z,7.70
2022-09-27T18:28:30.244Z,6.90
2022-09-27T18:33:55.695Z,6.88
2022-09-27T18:39:21.156Z,7.40
2022-09-27T18:44:45.283Z,8.43
2022-09-27T18:50:11.458Z,7.38
2022-09-27T18:55:38.404Z,7.70
2022-09-27T19:01:03.982Z,8.02
2022-09-27T19:06:29.634Z,7.93
2022-09-27T19:11:54.634Z,8.38
2022-09-27T19:17:19.103Z,8.02
2022-09-27T19:22:44.782Z,8.07
2022-09-27T19:28:09.180Z,7.05
2022-09-27T19:33:34.094Z,8.27
2022-09-27T19:39:01.334Z,8.05
2022-09-27T19:44:26.104Z,8.05
2022-09-27T19:49:50.815Z,7.82
2022-09-27T19:55:16.613Z,8.10
2022-09-27T20:00:42.447Z,8.52
2022-09-27T20:06:11.232Z,8.25
2022-09-27T20:11:37.063Z,8.63
2022-09-27T20:17:01.397Z,8.73
2022-09-27T20:22:25.594Z,9.45
2022-09-27T20:27:51.085Z,9.32
2022-09-27T20:33:33.145Z,8.70
2022-09-27T20:39:02.759Z,9.25
2022-09-27T20:44:30.003Z,8.80
2022-09-27T20:49:54.383Z,8.65
2022-09-27T20:55:20.849Z,10.05
2022-09-27T21:00:46.658Z,11.95
2022-09-27T21:06:12.963Z,11.55
2022-09-27T21:11:38.036Z,12.35
2022-09-27T21:17:03.318Z,12.60
2022-09-27T21:22:28.409Z,11.63
2022-09-27T21:27:55.410Z,11.35
2022-09-27T21:33:20.895Z,10.15
2022-09-27T21:38:44.914Z,9.48
2022-09-27T21:44:09.645Z,9.68
2022-09-27T21:49:35.281Z,9.23
2022-09-27T21:54:59.556Z,10.13
2022-09-27T22:00:24.707Z,10.27
2022-09-27T22:05:52.787Z,10.25
2022-09-27T22:11:19.224Z,9.57
2022-09-27T22:16:43.323Z,9.63
2022-09-27T22:22:09.062Z,9.93
2022-09-27T22:27:33.148Z,10.98
2022-09-27T22:33:02.682Z,10.50
2022-09-27T22:38:31.852Z,12.32
2022-09-27T22:43:56.613Z,13.55
2022-09-27T22:49:21.060Z,12.13
2022-09-27T22:54:46.686Z,13.35
2022-09-27T23:00:12.582Z,14.18
2022-09-27T23:05:36.610Z,14.38
2022-09-27T23:11:06.380Z,15.52
2022-09-27T23:16:35.056Z,15.40
2022-09-27T23:22:01.286Z,16.92
2022-09-27T23:27:45.296Z,17.90
2022-09-27T23:33:09.695Z,17.67
2022-09-27T23:38:34.569Z,18.58
2022-09-27T23:44:00.018Z,18.65
2022-09-27T23:49:25.942Z,19.30
2022-09-27T23:54:50.347Z,18.60
